Terminal Aerodrome Forecast
Issued by NWS Burlington, VT

Home | Current Version | Previous Version | Text Only | Print | Product List | Glossary On
Versions: 1 2 3 4 5 6 7 8 9 10 11 12 13 14 15 16 17 18 19
747
FTUS41 KBTV 041720
TAFBTV
TAF
KBTV 041720Z 0418/0518 19004KT P6SM VCSH OVC030
     FM042000 16006KT P6SM -SHRA OVC035
     FM050300 VRB03KT P6SM VCSH BKN035
     FM051400 VRB03KT P6SM BKN040=

USA.gov is the U.S. government's official web portal to all federal, state and local government web resources and services.